Time;durP1;ratioP1;P1;durP2;ratioP2;P2;SDS_P1;SDS_P2;PMS_P1;PMS_P2;Temp;Humidity;BMP_temperature;BMP_pressure;BME280_temperature;BME280_humidity;BME280_pressure;Samples;Min_cycle;Max_cycle;Signal;HPM_P1;HPM_P2
2022/05/31 00:02:10;;;;;;;70.27;8.00;;;14.00;42.00;;;;;;5097044;28;20559;-88
2022/05/31 00:04:36;;;;;;;75.13;8.40;;;14.00;44.10;;;;;;5096251;28;20939;-88
2022/05/31 00:07:02;;;;;;;70.90;8.17;;;14.00;44.20;;;;;;5114358;28;20495;-88
2022/05/31 00:09:28;;;;;;;73.63;8.80;;;14.00;43.70;;;;;;5114226;28;20217;-88
2022/05/31 00:11:55;;;;;;;70.57;8.50;;;14.00;42.80;;;;;;5096020;28;20405;-88
2022/05/31 00:14:21;;;;;;;71.27;8.90;;;14.00;42.50;;;;;;5096095;28;20182;-88
2022/05/31 00:16:47;;;;;;;70.80;8.93;;;13.90;45.70;;;;;;5114163;28;20818;-88
2022/05/31 00:19:15;;;;;;;71.97;9.10;;;13.80;43.30;;;;;;5113326;28;20428;-88
2022/05/31 00:21:43;;;;;;;69.33;7.83;;;13.90;45.60;;;;;;5114168;28;20186;-88
2022/05/31 00:24:13;;;;;;;70.37;7.90;;;13.80;44.80;;;;;;5114079;28;20397;-88
2022/05/31 00:26:40;;;;;;;71.20;9.23;;;13.70;47.30;;;;;;5114293;28;20425;-88
2022/05/31 00:29:07;;;;;;;71.03;10.10;;;13.50;52.70;;;;;;5095835;28;20408;-88
2022/05/31 00:31:33;;;;;;;71.10;9.60;;;13.60;51.50;;;;;;5114016;28;20488;-88
2022/05/31 00:33:59;;;;;;;71.87;10.67;;;13.70;50.50;;;;;;5095698;28;20416;-88
2022/05/31 00:36:25;;;;;;;72.40;10.03;;;13.80;49.80;;;;;;5114370;28;20420;-88
2022/05/31 00:38:54;;;;;;;70.47;10.73;;;13.70;51.30;;;;;;5114515;28;20400;-88
2022/05/31 00:41:23;;;;;;;73.67;11.30;;;13.80;50.10;;;;;;5113820;28;20400;-88
2022/05/31 00:43:57;;;;;;;72.10;10.60;;;13.90;50.10;;;;;;5113839;28;20483;-88
2022/05/31 00:46:25;;;;;;;70.87;10.00;;;13.80;50.80;;;;;;5113809;28;20559;-88
2022/05/31 00:48:57;;;;;;;73.77;11.00;;;13.60;51.30;;;;;;5113748;28;20450;-87
2022/05/31 00:51:26;;;;;;;74.33;11.23;;;13.50;53.80;;;;;;5113743;28;20396;-88
2022/05/31 00:53:57;;;;;;;70.30;8.93;;;13.50;51.70;;;;;;5095478;28;20543;-88
2022/05/31 00:56:27;;;;;;;70.67;9.80;;;13.60;53.30;;;;;;5113918;28;20953;-88
2022/05/31 00:58:58;;;;;;;71.67;11.30;;;13.50;54.10;;;;;;5113561;28;20411;-88
2022/05/31 01:01:26;;;;;;;70.77;10.07;;;13.40;57.00;;;;;;5095322;28;20480;-88
2022/05/31 01:03:52;;;;;;;74.40;9.80;;;13.30;58.80;;;;;;5095335;28;20400;-88
2022/05/31 01:06:20;;;;;;;73.20;10.00;;;13.30;59.60;;;;;;5114078;28;20511;-87
2022/05/31 01:08:47;;;;;;;74.80;10.77;;;13.30;59.20;;;;;;5113526;28;20881;-88
2022/05/31 01:11:22;;;;;;;70.43;9.60;;;13.20;62.00;;;;;;5095364;28;20488;-89
2022/05/31 01:13:48;;;;;;;73.07;8.43;;;13.10;62.50;;;;;;5113728;28;20759;-88
2022/05/31 01:16:16;;;;;;;73.13;8.80;;;13.10;65.60;;;;;;5113286;28;20420;-88
2022/05/31 01:18:42;;;;;;;69.07;8.10;;;13.10;64.40;;;;;;5113762;28;20212;-88
2022/05/31 01:21:08;;;;;;;69.97;8.97;;;13.10;63.70;;;;;;5113135;28;20416;-88
2022/05/31 01:24:04;;;;;;;68.93;8.20;;;12.90;66.10;;;;;;5095195;28;20423;-88
2022/05/31 01:26:55;;;;;;;69.30;7.70;;;12.90;66.60;;;;;;5089695;28;20416;-88
2022/05/31 01:29:27;;;;;;;69.87;7.90;;;12.80;69.60;;;;;;5096129;28;20454;-87
2022/05/31 01:31:57;;;;;;;74.07;7.97;;;12.70;71.20;;;;;;5117221;28;20499;-88
2022/05/31 01:35:00;;;;;;;71.73;9.10;;;12.70;70.40;;;;;;5099076;28;20424;-88
2022/05/31 01:37:55;;;;;;;74.57;9.57;;;12.80;69.10;;;;;;5149624;22;20423;-90
2022/05/31 01:40:47;;;;;;;71.00;7.87;;;12.90;67.20;;;;;;5239932;22;20494;-90
2022/05/31 01:43:13;;;;;;;70.37;8.80;;;12.90;69.00;;;;;;5109964;28;20463;-91
2022/05/31 01:45:44;;;;;;;68.60;7.30;;;12.90;68.00;;;;;;5116090;28;20432;-90
2022/05/31 01:48:10;;;;;;;70.90;8.00;;;12.90;68.60;;;;;;5117244;28;20372;-91
2022/05/31 01:50:37;;;;;;;70.27;8.40;;;12.90;70.50;;;;;;5115817;28;20419;-91
2022/05/31 01:53:04;;;;;;;70.50;7.63;;;12.90;69.70;;;;;;5117072;28;20402;-91
2022/05/31 01:55:32;;;;;;;72.20;8.23;;;12.90;70.50;;;;;;5117235;28;20488;-91
2022/05/31 01:58:02;;;;;;;71.70;6.70;;;12.90;71.80;;;;;;5116933;28;20487;-90
2022/05/31 02:00:28;;;;;;;70.97;7.53;;;12.90;73.50;;;;;;5117499;28;20404;-90
2022/05/31 02:02:58;;;;;;;69.80;7.17;;;12.90;70.00;;;;;;5116930;28;20455;-91
2022/05/31 02:05:24;;;;;;;69.40;7.03;;;12.70;71.60;;;;;;5117118;28;20135;-91
2022/05/31 02:07:58;;;;;;;69.57;7.90;;;12.70;73.70;;;;;;5115609;28;20464;-91
2022/05/31 02:10:28;;;;;;;72.10;7.93;;;12.70;74.00;;;;;;5116986;28;20396;-91
2022/05/31 02:12:54;;;;;;;68.37;7.43;;;12.60;77.70;;;;;;5116696;28;20404;-91
2022/05/31 02:15:21;;;;;;;68.33;6.80;;;12.50;79.60;;;;;;5116596;28;20397;-90
2022/05/31 02:17:47;;;;;;;67.07;6.30;;;12.50;82.40;;;;;;5116619;28;20167;-90
2022/05/31 02:20:13;;;;;;;74.43;7.40;;;12.40;78.70;;;;;;5116768;28;20913;-90
2022/05/31 02:22:39;;;;;;;69.40;6.33;;;12.40;81.30;;;;;;5116425;28;20316;-90
2022/05/31 02:25:06;;;;;;;67.97;6.17;;;12.40;78.50;;;;;;5115202;28;20401;-91
2022/05/31 02:27:31;;;;;;;68.73;6.80;;;12.40;78.40;;;;;;5116285;28;20422;-91
2022/05/31 02:29:57;;;;;;;67.70;6.03;;;12.50;75.80;;;;;;5115162;28;20475;-91
2022/05/31 02:32:23;;;;;;;68.60;5.97;;;12.40;73.70;;;;;;5116329;28;20167;-91
2022/05/31 02:34:51;;;;;;;67.10;5.73;;;12.50;72.80;;;;;;5115592;28;20167;-90
2022/05/31 02:37:19;;;;;;;68.73;7.10;;;12.50;71.10;;;;;;5116241;28;20795;-91
2022/05/31 02:39:45;;;;;;;67.70;5.90;;;12.50;72.30;;;;;;5116232;28;20769;-90
2022/05/31 02:42:12;;;;;;;68.40;5.90;;;12.50;70.50;;;;;;5114922;28;20954;-91
2022/05/31 02:44:37;;;;;;;69.50;5.17;;;12.40;67.50;;;;;;5116080;28;20403;-91
2022/05/31 02:47:04;;;;;;;69.27;5.40;;;12.40;69.10;;;;;;5116014;28;20918;-91
2022/05/31 02:49:30;;;;;;;68.00;6.60;;;12.40;68.20;;;;;;5116001;28;20189;-91
2022/05/31 02:51:58;;;;;;;69.70;5.90;;;12.40;69.10;;;;;;5116253;28;20956;-91
2022/05/31 02:54:23;;;;;;;68.20;6.23;;;12.40;68.40;;;;;;5116267;28;20167;-90
2022/05/31 02:56:49;;;;;;;68.50;5.80;;;12.50;67.00;;;;;;5115826;28;20843;-91
2022/05/31 02:59:15;;;;;;;65.73;5.30;;;12.40;68.70;;;;;;5115869;28;20169;-91
2022/05/31 03:01:42;;;;;;;68.60;5.97;;;12.50;66.50;;;;;;5115743;28;20987;-90
2022/05/31 03:04:09;;;;;;;67.10;4.93;;;12.30;69.90;;;;;;5115779;28;20403;-90
2022/05/31 03:06:40;;;;;;;66.97;5.33;;;12.30;71.50;;;;;;5115599;28;20419;-90
2022/05/31 03:09:07;;;;;;;67.67;5.47;;;12.20;74.20;;;;;;5114460;28;20404;-91
2022/05/31 03:11:40;;;;;;;65.77;5.13;;;12.30;72.10;;;;;;5114630;28;20416;-91
2022/05/31 03:14:22;;;;;;;68.37;6.00;;;12.30;70.30;;;;;;5114280;28;20401;-91
2022/05/31 03:16:53;;;;;;;68.77;4.93;;;12.30;69.40;;;;;;5115895;28;20420;-91
2022/05/31 03:19:24;;;;;;;68.33;5.90;;;12.40;69.00;;;;;;5184169;22;20446;-84
2022/05/31 03:22:14;;;;;;;66.40;5.40;;;12.50;68.40;;;;;;5122985;28;20432;-85
2022/05/31 03:24:43;;;;;;;68.47;5.90;;;12.60;65.70;;;;;;5124327;27;20396;-85
2022/05/31 03:27:11;;;;;;;74.00;5.67;;;12.60;65.90;;;;;;5143725;27;20447;-85
2022/05/31 03:29:42;;;;;;;67.90;5.40;;;12.70;64.80;;;;;;5143504;27;20395;-84
2022/05/31 03:32:09;;;;;;;70.47;5.80;;;12.70;63.20;;;;;;5143683;27;20403;-85
2022/05/31 03:34:36;;;;;;;67.60;5.43;;;12.80;62.60;;;;;;5143144;27;20494;-85
2022/05/31 03:37:01;;;;;;;66.97;5.97;;;12.70;62.30;;;;;;5142786;27;20481;-85
2022/05/31 03:39:27;;;;;;;69.07;6.10;;;12.70;63.10;;;;;;5124854;27;20933;-85
2022/05/31 03:41:53;;;;;;;71.80;5.60;;;12.60;68.30;;;;;;5143415;27;20292;-85
2022/05/31 03:44:18;;;;;;;67.30;5.83;;;12.60;68.00;;;;;;5129494;27;20169;-85
2022/05/31 03:46:47;;;;;;;68.57;6.00;;;12.50;67.50;;;;;;5124808;27;20548;-85
2022/05/31 03:49:13;;;;;;;70.30;5.30;;;12.40;69.20;;;;;;5125062;27;20170;-85
2022/05/31 03:51:39;;;;;;;67.20;5.87;;;12.50;70.70;;;;;;5142882;27;20400;-85
2022/05/31 03:54:05;;;;;;;68.10;6.20;;;12.60;69.40;;;;;;5124618;27;20403;-85
2022/05/31 03:56:31;;;;;;;69.97;6.40;;;12.60;69.40;;;;;;5124934;27;20431;-85
2022/05/31 03:58:56;;;;;;;67.87;5.40;;;12.70;71.50;;;;;;5142737;27;20403;-85
2022/05/31 04:01:22;;;;;;;69.20;6.20;;;12.70;68.30;;;;;;5125036;27;20162;-84
2022/05/31 04:03:48;;;;;;;67.60;5.87;;;12.60;68.50;;;;;;5124686;27;20186;-85
2022/05/31 04:06:14;;;;;;;67.20;6.17;;;12.70;69.30;;;;;;5143050;27;20419;-85
2022/05/31 04:08:39;;;;;;;66.60;5.10;;;12.70;69.10;;;;;;5141738;27;20161;-85
2022/05/31 04:11:05;;;;;;;67.03;5.70;;;12.60;70.90;;;;;;5123538;27;20180;-85
2022/05/31 04:13:31;;;;;;;67.10;5.20;;;12.60;69.90;;;;;;5123475;27;20198;-85
2022/05/31 04:16:08;;;;;;;67.80;6.00;;;12.60;70.70;;;;;;5141627;27;20186;-85
2022/05/31 04:18:37;;;;;;;66.73;4.97;;;12.70;70.70;;;;;;5123058;27;20157;-85
2022/05/31 04:21:04;;;;;;;66.37;5.27;;;12.70;70.70;;;;;;5123090;27;20463;-85
2022/05/31 04:26:16;;;;;;;67.57;5.30;;;12.60;69.30;;;;;;5142408;27;20444;-85
2022/05/31 04:28:41;;;;;;;68.50;5.83;;;12.70;68.00;;;;;;5123939;27;20417;-84
2022/05/31 04:31:08;;;;;;;65.90;5.30;;;12.80;67.60;;;;;;5123890;27;20918;-84
2022/05/31 04:33:33;;;;;;;67.10;6.00;;;12.90;67.30;;;;;;5123890;27;20414;-84
2022/05/31 04:36:00;;;;;;;66.00;4.80;;;13.00;66.60;;;;;;5123713;27;20431;-85
2022/05/31 04:38:26;;;;;;;69.07;5.50;;;13.00;68.20;;;;;;5123848;27;20732;-85
2022/05/31 04:40:52;;;;;;;67.10;5.40;;;13.00;69.90;;;;;;5141941;27;20466;-84
2022/05/31 04:43:18;;;;;;;65.93;5.10;;;13.00;69.60;;;;;;5141839;27;20525;-84
2022/05/31 04:45:44;;;;;;;65.70;5.27;;;13.00;70.40;;;;;;5123946;28;20185;-85
2022/05/31 04:48:09;;;;;;;68.07;4.73;;;12.90;68.60;;;;;;5141517;27;20253;-85
2022/05/31 04:50:38;;;;;;;67.27;5.10;;;12.90;64.50;;;;;;5142998;27;20242;-84
2022/05/31 04:53:04;;;;;;;65.97;4.97;;;13.00;64.90;;;;;;5141804;27;20162;-84
2022/05/31 04:55:30;;;;;;;68.20;4.70;;;13.00;63.90;;;;;;5122300;27;20419;-84
2022/05/31 04:57:56;;;;;;;66.37;5.20;;;13.00;64.60;;;;;;5122554;27;20408;-84
2022/05/31 05:00:21;;;;;;;66.97;4.83;;;13.00;67.10;;;;;;5141441;27;20222;-85
2022/05/31 05:02:47;;;;;;;69.27;4.40;;;12.90;66.40;;;;;;5141522;27;20200;-85
2022/05/31 05:05:13;;;;;;;72.57;5.40;;;13.00;65.40;;;;;;5121905;28;20502;-84
2022/05/31 05:07:39;;;;;;;67.90;5.30;;;12.80;65.90;;;;;;5141325;28;20189;-85
2022/05/31 05:10:06;;;;;;;66.17;4.83;;;12.70;64.10;;;;;;5122339;28;20917;-84
2022/05/31 05:12:32;;;;;;;68.37;6.00;;;12.50;69.00;;;;;;5141433;28;20252;-84
2022/05/31 05:14:58;;;;;;;71.13;5.10;;;12.40;74.20;;;;;;5141254;28;20929;-85
2022/05/31 05:17:24;;;;;;;68.80;5.60;;;12.40;71.20;;;;;;5123032;28;20431;-86
2022/05/31 05:19:50;;;;;;;65.87;5.00;;;12.40;72.30;;;;;;5122241;28;20181;-85
2022/05/31 05:22:16;;;;;;;66.87;4.30;;;12.50;71.00;;;;;;5126759;28;20451;-84
2022/05/31 05:24:41;;;;;;;65.97;4.47;;;12.50;71.80;;;;;;5122938;28;20165;-84
2022/05/31 05:27:08;;;;;;;66.37;5.53;;;12.50;70.70;;;;;;5142671;28;20261;-84
2022/05/31 05:32:18;;;;;;;67.37;4.90;;;12.60;71.80;;;;;;5142510;28;20471;-84
2022/05/31 05:34:43;;;;;;;66.87;6.03;;;12.70;70.30;;;;;;5141504;28;20434;-85
2022/05/31 05:37:09;;;;;;;67.97;4.90;;;12.50;66.90;;;;;;5145257;28;20189;-85
2022/05/31 05:39:35;;;;;;;65.90;4.67;;;12.50;68.20;;;;;;5127393;28;20170;-84
2022/05/31 05:42:00;;;;;;;67.50;4.87;;;12.60;66.20;;;;;;5141719;28;20556;-85
2022/05/31 05:44:26;;;;;;;67.13;4.73;;;12.70;69.10;;;;;;5147471;28;20162;-85
2022/05/31 05:46:52;;;;;;;66.43;4.50;;;12.90;66.00;;;;;;5140836;28;20197;-85
2022/05/31 05:49:18;;;;;;;66.23;4.67;;;12.90;64.60;;;;;;5122248;28;20407;-85
2022/05/31 05:51:45;;;;;;;65.20;4.30;;;13.10;62.60;;;;;;5140035;28;20165;-85
2022/05/31 05:54:11;;;;;;;67.77;4.20;;;13.10;56.70;;;;;;5121667;28;20199;-85
2022/05/31 05:56:37;;;;;;;66.17;4.43;;;13.20;53.50;;;;;;5140333;28;20419;-85
2022/05/31 05:59:02;;;;;;;66.30;4.77;;;13.30;56.20;;;;;;5121967;28;20169;-85
2022/05/31 06:01:37;;;;;;;65.67;4.80;;;13.40;56.10;;;;;;5143955;28;20529;-85
2022/05/31 06:04:09;;;;;;;67.77;5.07;;;13.50;53.10;;;;;;5123691;28;20173;-85
2022/05/31 06:06:36;;;;;;;66.20;4.87;;;13.50;46.80;;;;;;5138387;28;20940;-86
2022/05/31 06:09:11;;;;;;;69.13;4.90;;;13.20;50.40;;;;;;5116515;28;20426;-86
2022/05/31 06:11:48;;;;;;;66.70;5.20;;;13.10;51.20;;;;;;5135206;28;20383;-86
2022/05/31 06:14:29;;;;;;;66.17;4.97;;;12.90;56.10;;;;;;5116602;28;20460;-86
2022/05/31 06:17:00;;;;;;;65.70;4.60;;;13.10;63.20;;;;;;5136019;27;20451;-86
2022/05/31 06:19:34;;;;;;;66.40;4.33;;;13.20;63.00;;;;;;5138519;27;20511;-85
2022/05/31 06:22:00;;;;;;;68.70;5.43;;;13.40;57.30;;;;;;5122123;27;20447;-86
2022/05/31 06:24:30;;;;;;;67.27;5.20;;;13.30;47.10;;;;;;5146017;27;20425;-86
2022/05/31 06:26:56;;;;;;;65.10;4.37;;;13.20;50.40;;;;;;5121680;27;20419;-86
2022/05/31 06:29:22;;;;;;;66.50;4.73;;;13.40;50.90;;;;;;5121581;27;20518;-86
2022/05/31 06:31:47;;;;;;;66.20;5.40;;;13.50;50.90;;;;;;5120936;27;20252;-86
2022/05/31 06:34:13;;;;;;;68.17;6.70;;;13.50;45.60;;;;;;5121663;27;20195;-86
2022/05/31 06:36:41;;;;;;;66.70;5.60;;;13.60;43.60;;;;;;5139236;27;20190;-86
2022/05/31 06:39:08;;;;;;;71.20;4.80;;;13.50;40.50;;;;;;5139566;27;20166;-86
2022/05/31 06:41:35;;;;;;;69.53;5.87;;;13.30;45.30;;;;;;5121176;27;20419;-86
2022/05/31 06:44:00;;;;;;;67.27;5.30;;;13.50;45.80;;;;;;5119742;27;20403;-86
2022/05/31 06:46:26;;;;;;;66.37;5.10;;;13.80;47.70;;;;;;5137162;27;20468;-86
2022/05/31 06:48:53;;;;;;;69.23;6.80;;;14.00;43.20;;;;;;5137352;27;20211;-86
2022/05/31 06:56:48;;;;;;;70.10;7.07;;;14.30;41.60;;;;;;5118940;27;20174;-86
2022/05/31 06:56:53;;;;;;;67.30;5.20;;;14.60;40.30;;;;;;5137589;27;20424;-86
2022/05/31 06:59:18;;;;;;;70.47;5.40;;;14.70;28.20;;;;;;5118471;27;20400;-86
2022/05/31 07:01:47;;;;;;;67.40;6.13;;;14.80;26.50;;;;;;5118382;27;20452;-86
2022/05/31 07:04:13;;;;;;;67.10;5.60;;;14.80;28.20;;;;;;5118437;27;20409;-86
2022/05/31 07:06:38;;;;;;;66.60;5.03;;;14.80;20.60;;;;;;5118439;27;20437;-86
2022/05/31 07:09:05;;;;;;;67.40;5.03;;;14.50;22.30;;;;;;5136783;27;20405;-86
2022/05/31 07:11:30;;;;;;;66.27;5.73;;;14.50;27.50;;;;;;5118571;27;20194;-86
2022/05/31 07:13:57;;;;;;;69.37;5.40;;;14.50;25.90;;;;;;5118428;27;20942;-86
2022/05/31 07:16:23;;;;;;;66.27;4.23;;;14.50;26.20;;;;;;5118295;27;20213;-86
2022/05/31 07:18:49;;;;;;;67.00;4.80;;;14.60;26.00;;;;;;5136773;27;20404;-86
2022/05/31 07:21:15;;;;;;;67.23;4.53;;;14.70;23.90;;;;;;5118224;27;20424;-86
2022/05/31 07:23:41;;;;;;;67.37;5.13;;;14.70;24.60;;;;;;5118991;27;20605;-86
2022/05/31 07:26:08;;;;;;;69.67;4.03;;;14.80;24.70;;;;;;5137984;27;20592;-86
2022/05/31 07:28:34;;;;;;;67.57;5.03;;;14.50;23.60;;;;;;5119267;27;20617;-86
2022/05/31 07:31:00;;;;;;;67.30;4.73;;;14.40;25.70;;;;;;5137173;27;20458;-86
2022/05/31 07:33:26;;;;;;;65.87;5.00;;;14.60;26.60;;;;;;5119487;27;20173;-87
2022/05/31 07:35:52;;;;;;;72.57;5.77;;;14.60;27.30;;;;;;5120376;27;20970;-86
2022/05/31 07:38:20;;;;;;;65.90;5.33;;;14.60;31.10;;;;;;5119304;27;20410;-86
2022/05/31 07:40:47;;;;;;;66.10;5.50;;;14.50;35.30;;;;;;5119071;27;20250;-86
2022/05/31 07:43:13;;;;;;;66.17;6.40;;;14.40;39.40;;;;;;5136561;27;20590;-86
2022/05/31 07:45:39;;;;;;;66.50;5.27;;;14.40;40.70;;;;;;5118873;27;20963;-86
2022/05/31 07:48:07;;;;;;;67.40;5.70;;;14.30;39.70;;;;;;5137517;27;20398;-86
2022/05/31 07:50:33;;;;;;;69.23;6.10;;;14.20;38.50;;;;;;5137047;27;20174;-86
2022/05/31 07:52:59;;;;;;;77.83;5.93;;;14.20;50.80;;;;;;5136827;27;20942;-87
2022/05/31 07:55:28;;;;;;;66.37;5.53;;;14.00;61.60;;;;;;5144430;27;20404;-88
2022/05/31 08:00:40;;;;;;;69.47;6.00;;;13.90;68.60;;;;;;5137269;27;20433;-86
2022/05/31 08:03:09;;;;;;;68.30;4.70;;;13.90;68.10;;;;;;5118209;27;20811;-86
2022/05/31 08:05:39;;;;;;;67.70;4.67;;;13.70;69.10;;;;;;5137177;27;20437;-87
2022/05/31 08:08:06;;;;;;;67.37;5.00;;;13.80;70.90;;;;;;5139174;27;20412;-86
2022/05/31 08:10:32;;;;;;;67.20;5.30;;;13.80;84.00;;;;;;5120171;27;20412;-87
2022/05/31 08:12:58;;;;;;;67.50;4.80;;;13.80;83.70;;;;;;5119772;27;20471;-87
2022/05/31 08:15:23;;;;;;;66.07;4.73;;;14.00;81.40;;;;;;5120035;27;20998;-86
2022/05/31 08:17:49;;;;;;;67.93;5.20;;;14.20;84.20;;;;;;5138954;27;20159;-85
2022/05/31 08:20:17;;;;;;;67.07;5.00;;;14.30;90.60;;;;;;5117841;27;20232;-86
2022/05/31 08:22:44;;;;;;;66.53;4.37;;;14.30;89.80;;;;;;5144967;27;20193;-85
2022/05/31 08:25:11;;;;;;;66.17;4.57;;;14.30;80.70;;;;;;5136580;27;20451;-86
2022/05/31 08:27:36;;;;;;;66.13;4.77;;;14.20;81.80;;;;;;5116838;27;20772;-85
2022/05/31 08:30:04;;;;;;;69.90;4.53;;;14.20;77.30;;;;;;5117069;27;20402;-86
2022/05/31 08:32:31;;;;;;;68.00;4.70;;;14.20;82.10;;;;;;5117651;27;20656;-85
2022/05/31 08:34:56;;;;;;;67.60;5.07;;;14.20;85.10;;;;;;5116906;27;20401;-85
2022/05/31 08:37:22;;;;;;;69.60;4.60;;;14.20;87.90;;;;;;5135194;27;20580;-86
2022/05/31 08:40:14;;;;;;;66.73;4.60;;;14.20;79.50;;;;;;5134556;27;20162;-86
2022/05/31 08:42:50;;;;;;;66.00;4.63;;;14.10;84.40;;;;;;5130692;27;20208;-86
2022/05/31 08:45:34;;;;;;;67.07;5.23;;;14.20;92.40;;;;;;5135082;27;20901;-86
2022/05/31 08:48:16;;;;;;;68.60;5.40;;;14.30;92.00;;;;;;5135081;27;20377;-85
2022/05/31 08:57:09;;;;;;;67.90;10.60;;;14.30;96.20;;;;;;5112918;27;20480;-87
2022/05/31 09:00:04;;;;;;;69.60;8.43;;;14.20;99.50;;;;;;5134803;27;20855;-88
2022/05/31 09:02:54;;;;;;;70.30;8.50;;;14.10;98.00;;;;;;5123120;27;20492;-88
2022/05/31 09:05:28;;;;;;;69.50;7.97;;;14.10;97.30;;;;;;5115953;28;20392;-88
2022/05/31 09:08:12;;;;;;;74.23;9.90;;;14.10;99.90;;;;;;5134617;28;20406;-87
2022/05/31 09:10:46;;;;;;;66.47;9.27;;;14.10;99.90;;;;;;5134437;28;20421;-87
2022/05/31 09:13:49;;;;;;;67.20;9.80;;;14.00;99.90;;;;;;5116261;28;21023;-87
2022/05/31 09:16:39;;;;;;;68.90;9.80;;;14.00;98.80;;;;;;5116540;28;20564;-86
2022/05/31 09:21:54;;;;;;;66.70;6.90;;;14.00;97.70;;;;;;4425715;26;20474;-90
2022/05/31 09:27:38;;;;;;;67.77;8.70;;;14.50;95.30;;;;;;5121463;28;20935;-90
2022/05/31 09:30:22;;;;;;;74.27;5.37;;;15.00;91.60;;;;;;5084354;28;20434;-90
2022/05/31 09:33:10;;;;;;;67.37;6.33;;;15.40;77.80;;;;;;5134042;28;20446;-88
2022/05/31 09:35:55;;;;;;;66.13;5.10;;;15.60;80.60;;;;;;5133798;28;20432;-90
2022/05/31 09:38:58;;;;;;;67.40;4.80;;;16.00;68.50;;;;;;5115864;28;20406;-88
2022/05/31 09:42:01;;;;;;;68.63;5.00;;;15.90;50.40;;;;;;5115571;28;20463;-90
2022/05/31 09:44:29;;;;;;;65.40;3.87;;;15.90;41.60;;;;;;5115727;28;20413;-90
2022/05/31 09:47:16;;;;;;;65.97;4.40;;;16.20;46.00;;;;;;5115009;28;20436;-90
2022/05/31 09:49:50;;;;;;;65.57;5.43;;;16.40;43.50;;;;;;5115251;28;20485;-89
2022/05/31 09:52:33;;;;;;;65.97;4.20;;;16.80;41.60;;;;;;5137055;27;20440;-89
2022/05/31 09:58:33;;;;;;;;;;;;;;;;;;;;;
2022/05/31 10:01:49;;;;;;;68.40;5.70;;;17.80;32.50;;;;;;5127278;27;20414;-88
2022/05/31 10:04:30;;;;;;;66.50;4.87;;;17.70;20.00;;;;;;5034013;28;20420;-90
2022/05/31 10:07:05;;;;;;;67.63;5.90;;;17.90;17.20;;;;;;5017374;28;20427;-89
2022/05/31 10:09:50;;;;;;;67.97;6.67;;;17.80;23.10;;;;;;5105644;27;20411;-90
2022/05/31 10:12:24;;;;;;;67.63;5.53;;;18.00;25.00;;;;;;5119341;27;20404;-90
2022/05/31 10:14:57;;;;;;;72.27;5.13;;;18.10;19.70;;;;;;5118837;27;20407;-90
2022/05/31 10:17:42;;;;;;;68.30;5.60;;;18.20;20.50;;;;;;5118714;27;20431;-90
2022/05/31 10:20:16;;;;;;;68.30;5.20;;;18.60;19.30;;;;;;5137455;27;20407;-90
2022/05/31 10:23:15;;;;;;;67.27;5.10;;;19.00;21.90;;;;;;5137438;27;20424;-89
2022/05/31 10:25:45;;;;;;;66.17;4.20;;;19.40;23.00;;;;;;5118291;27;20953;-89
2022/05/31 10:28:33;;;;;;;70.47;14.30;;;19.90;18.10;;;;;;5137090;27;20954;-89
2022/05/31 10:31:14;;;;;;;70.90;12.90;;;20.00;1.00;;;;;;5137288;27;20381;-89
2022/05/31 10:33:40;;;;;;;70.73;14.43;;;20.40;1.00;;;;;;5137263;27;20470;-89
2022/05/31 10:36:32;;;;;;;70.10;12.40;;;20.90;1.00;;;;;;5118462;27;20512;-89
2022/05/31 10:39:11;;;;;;;65.77;3.87;;;21.30;1.00;;;;;;5137163;27;20926;-89
2022/05/31 10:41:54;;;;;;;67.30;4.30;;;21.60;1.00;;;;;;5137320;27;21000;-89
2022/05/31 10:44:33;;;;;;;67.10;3.47;;;21.40;1.00;;;;;;5137359;27;20378;-90
2022/05/31 10:47:25;;;;;;;68.07;4.03;;;21.00;1.00;;;;;;5119298;27;20433;-90
2022/05/31 10:49:57;;;;;;;68.37;3.90;;;20.70;1.00;;;;;;5118163;27;20761;-90
2022/05/31 10:52:47;;;;;;;70.10;3.53;;;20.50;1.00;;;;;;5136632;27;20376;-90
2022/05/31 10:55:24;;;;;;;68.40;3.77;;;20.30;1.00;;;;;;5118078;27;20970;-90
2022/05/31 10:58:13;;;;;;;68.23;3.90;;;20.20;1.00;;;;;;5118611;27;20444;-90
2022/05/31 11:01:13;;;;;;;70.03;3.90;;;19.90;1.00;;;;;;5136804;27;20881;-89
2022/05/31 11:03:42;;;;;;;66.87;3.57;;;19.90;1.00;;;;;;5072198;27;20458;-90
2022/05/31 11:06:30;;;;;;;66.70;3.47;;;20.00;1.00;;;;;;5136541;27;20454;-90
2022/05/31 11:12:44;;;;;;;70.17;3.40;;;20.60;1.00;;;;;;5136329;27;20373;-89
2022/05/31 11:15:34;;;;;;;66.60;3.40;;;20.80;1.00;;;;;;5016258;28;20966;-89
2022/05/31 11:18:10;;;;;;;67.20;4.67;;;20.90;1.00;;;;;;5048271;27;20399;-90
2022/05/31 11:21:00;;;;;;;67.07;4.07;;;20.70;1.00;;;;;;5118351;27;20772;-88
2022/05/31 11:23:54;;;;;;;72.80;6.03;;;20.60;1.00;;;;;;5136554;27;20436;-88
2022/05/31 11:26:46;;;;;;;67.40;6.10;;;20.50;1.00;;;;;;5118168;27;20437;-88
2022/05/31 11:29:49;;;;;;;67.77;4.90;;;20.70;1.00;;;;;;5136640;27;20380;-88
2022/05/31 11:32:39;;;;;;;67.37;5.00;;;20.60;1.00;;;;;;5117749;27;20405;-88
2022/05/31 11:38:47;;;;;;;66.87;5.50;;;20.30;1.00;;;;;;5136236;27;20391;-88
2022/05/31 11:41:13;;;;;;;66.87;4.17;;;20.40;1.00;;;;;;5117879;27;20406;-87
2022/05/31 11:44:30;;;;;;;68.00;5.23;;;20.70;1.00;;;;;;5117429;27;20447;-87
2022/05/31 11:47:29;;;;;;;67.37;4.63;;;20.90;1.00;;;;;;5135763;27;20648;-87
2022/05/31 11:50:26;;;;;;;69.50;6.40;;;20.70;1.00;;;;;;5116512;27;20406;-87
2022/05/31 11:53:03;;;;;;;69.17;4.73;;;20.30;1.00;;;;;;5135629;27;20402;-87
2022/05/31 11:56:41;;;;;;;68.17;5.80;;;20.60;1.00;;;;;;5135757;27;20880;-87
2022/05/31 11:58:46;;;;;;;67.70;6.60;;;20.70;1.00;;;;;;5120998;27;20927;-87
2022/05/31 12:01:23;;;;;;;67.47;5.80;;;20.60;1.00;;;;;;5135250;27;20398;-87
2022/05/31 12:04:17;;;;;;;67.77;5.50;;;20.60;1.00;;;;;;5135014;27;20449;-87
2022/05/31 12:07:10;;;;;;;70.60;5.80;;;20.70;1.00;;;;;;5102560;27;20453;-87
2022/05/31 12:09:56;;;;;;;70.60;4.80;;;20.80;1.00;;;;;;5117480;27;20402;-87
2022/05/31 12:18:55;;;;;;;68.47;5.67;;;20.70;1.00;;;;;;4829756;25;20470;-88
2022/05/31 12:22:04;;;;;;;67.57;5.27;;;21.10;1.00;;;;;;5135229;27;20378;-88
2022/05/31 12:28:16;;;;;;;67.97;7.10;;;21.50;1.00;;;;;;5148377;22;20479;-88
2022/05/31 12:31:12;;;;;;;66.83;5.70;;;21.50;1.00;;;;;;5112537;28;20491;-88
2022/05/31 12:33:43;;;;;;;68.47;6.10;;;22.00;1.00;;;;;;5112368;28;20488;-88
2022/05/31 12:36:15;;;;;;;67.30;4.83;;;22.50;1.00;;;;;;5117047;27;20432;-88
2022/05/31 12:39:21;;;;;;;70.50;7.60;;;22.90;1.00;;;;;;5116008;27;20407;-88
2022/05/31 12:41:58;;;;;;;68.40;7.00;;;23.30;1.00;;;;;;5105594;27;20404;-88
2022/05/31 12:44:48;;;;;;;66.80;5.20;;;23.00;1.00;;;;;;5118188;27;20411;-88
2022/05/31 12:47:32;;;;;;;68.87;7.83;;;22.90;1.00;;;;;;5115972;27;20439;-87
2022/05/31 12:50:19;;;;;;;68.07;3.97;;;22.50;1.00;;;;;;5116285;27;20431;-88
2022/05/31 12:59:35;;;;;;;67.00;3.17;;;21.60;1.00;;;;;;5028150;28;20396;-89
2022/05/31 13:02:01;;;;;;;67.10;3.20;;;22.00;1.00;;;;;;5101519;27;20817;-88
2022/05/31 13:04:58;;;;;;;69.57;3.70;;;22.20;1.00;;;;;;5115714;28;20411;-88
2022/05/31 13:07:50;;;;;;;66.87;3.57;;;22.10;1.00;;;;;;5115371;28;20435;-88
2022/05/31 13:20:28;;;;;;;66.27;3.20;;;21.50;1.00;;;;;;5134433;28;20800;-88
2022/05/31 13:23:08;;;;;;;67.90;4.13;;;21.60;1.00;;;;;;5114986;28;20482;-88
2022/05/31 13:25:46;;;;;;;68.73;5.70;;;21.70;1.00;;;;;;5116420;27;20392;-89
2022/05/31 13:28:53;;;;;;;70.97;7.27;;;21.90;1.00;;;;;;5119764;27;20415;-88
2022/05/31 13:31:47;;;;;;;67.53;4.20;;;22.50;1.00;;;;;;5056432;27;20439;-88
2022/05/31 13:34:29;;;;;;;66.47;3.40;;;22.40;1.00;;;;;;5119282;27;20404;-88
2022/05/31 13:37:00;;;;;;;69.00;4.13;;;22.80;1.00;;;;;;5119626;27;20461;-88
2022/05/31 13:39:52;;;;;;;68.50;4.80;;;23.10;1.00;;;;;;5138362;27;20387;-87
2022/05/31 13:42:53;;;;;;;68.60;5.73;;;22.90;1.00;;;;;;5133300;27;20458;-87
2022/05/31 13:45:25;;;;;;;67.23;4.60;;;22.50;1.00;;;;;;5120320;27;20784;-88
2022/05/31 13:48:20;;;;;;;67.13;3.93;;;22.40;1.00;;;;;;5120243;27;20411;-87
2022/05/31 13:51:03;;;;;;;66.33;3.67;;;22.00;1.00;;;;;;5126274;27;20456;-88
2022/05/31 13:53:42;;;;;;;66.87;3.80;;;21.80;1.00;;;;;;5119976;27;20443;-88
2022/05/31 13:56:14;;;;;;;69.93;3.97;;;21.80;1.00;;;;;;5137889;27;20434;-88
2022/05/31 13:58:47;;;;;;;66.80;3.00;;;21.40;1.00;;;;;;5137902;27;20448;-88
2022/05/31 14:01:38;;;;;;;66.10;2.63;;;21.30;1.00;;;;;;5119785;27;20498;-87
2022/05/31 14:04:09;;;;;;;65.97;2.43;;;21.10;1.00;;;;;;5120409;27;20395;-88
2022/05/31 14:09:50;;;;;;;66.57;3.17;;;21.60;1.00;;;;;;5120694;27;20482;-87
2022/05/31 14:16:18;;;;;;;69.33;3.70;;;22.60;1.00;;;;;;5098252;22;20480;-88
2022/05/31 14:18:58;;;;;;;69.13;3.30;;;22.60;1.00;;;;;;5095068;28;20792;-87
2022/05/31 14:24:31;;;;;;;65.37;3.03;;;23.30;1.00;;;;;;5096886;28;20397;-87